WetterOnline ( https://www.wetteronline.de )

Wetter aktuell Tuttlingen

Aktuelles Wetter: Klippeneck (975m)

6-stündlich | Neueste Meldungen
Ortszeit Temperatur Wetter
So, 27.11. 1:00 1.0° C fast wolkenlos
Sa, 26.11. 19:00 0.5° C wolkig
Sa, 26.11. 13:00 4.9° C leicht bewölkt
Sa, 26.11. 7:00 1.5° C leicht bewölkt
Sa, 26.11. 1:00 1.9° C leicht bewölkt
Fr, 25.11. 19:00 2.7° C wolkig
Fr, 25.11. 13:00 5.4° C bewölkt
Fr, 25.11. 7:00 2.0° C bewölkt
Ortszeit Temperatur Wetter
So, 27.11. 3:30 1.1° C wolkig
So, 27.11. 3:20 1.1° C wolkig
So, 27.11. 3:10 1.2° C bewölkt
So, 27.11. 3:00 1.3° C wolkig
So, 27.11. 2:50 1.3° C wolkig
So, 27.11. 2:40 1.2° C bewölkt
So, 27.11. 2:30 1.1° C wolkig
So, 27.11. 2:00 1.0° C wolkig
So, 27.11. 1:30 1.1° C fast wolkenlos
So, 27.11. 1:00 1.0° C fast wolkenlos
So, 27.11. 0:30 1.3° C wolkig
Ortszeit Relative Feuchte Sichtweite
So, 27.11. 1:00 86% 45 km
Sa, 26.11. 19:00 97% 17 km
Sa, 26.11. 13:00 66% 60 km
Sa, 26.11. 7:00 97% 4.4 km
Sa, 26.11. 1:00 91% 40 km
Fr, 25.11. 19:00 96% 24 km
Fr, 25.11. 13:00 84% 40 km
Fr, 25.11. 7:00 92% 30 km
Ortszeit Relative Feuchte Sichtweite
So, 27.11. 3:30 82% 60 km
So, 27.11. 3:20 82% -
So, 27.11. 3:10 80% -
So, 27.11. 3:00 80% 50 km
So, 27.11. 2:50 80% -
So, 27.11. 2:40 82% -
So, 27.11. 2:30 85% 50 km
So, 27.11. 2:00 85% 50 km
So, 27.11. 1:30 86% 40 km
So, 27.11. 1:00 86% 45 km
So, 27.11. 0:30 87% 45 km
Ortszeit Niederschlagsmenge Niederschlagsart
So, 27.11. 1:00 0.0 l/m2 in 6 Std. -
Sa, 26.11. 19:00 0.0 l/m2 in 12 Std. -
Sa, 26.11. 13:00 0.0 l/m2 in 6 Std. -
Sa, 26.11. 7:00 0.2 l/m2 in 12 Std. Regen
Sa, 26.11. 1:00 0.1 l/m2 in 6 Std. Regen
Fr, 25.11. 19:00 2 l/m2 in 12 Std. Regen
Fr, 25.11. 13:00 0.1 l/m2 in 6 Std. Regen
Fr, 25.11. 7:00 0.0 l/m2 in 12 Std. -
Ortszeit Niederschlagsmenge Niederschlagsart
So, 27.11. 3:30 0.0 l/m2 in 1 Std. -
So, 27.11. 3:20 keine Meldung -
So, 27.11. 3:10 keine Meldung -
So, 27.11. 3:00 0.0 l/m2 in 1 Std. -
So, 27.11. 2:50 keine Meldung -
So, 27.11. 2:40 keine Meldung -
So, 27.11. 2:30 0.0 l/m2 in 1 Std. -
So, 27.11. 2:00 0.0 l/m2 in 1 Std. -
So, 27.11. 1:30 0.0 l/m2 in 1 Std. -
So, 27.11. 1:00 0.0 l/m2 in 1 Std. -
So, 27.11. 0:30 0.0 l/m2 in 1 Std. -
Ortszeit Stärke Spitze Richtung
km/h Bft. km/h Grad Sektor
So, 27.11. 1:00 22 4 29 110° O
Sa, 26.11. 19:00 11 2 14 130° SO
Sa, 26.11. 13:00 6 1 13 270° W
Sa, 26.11. 7:00 7 2 18 310° NW
Sa, 26.11. 1:00 7 2 22 260° W
Fr, 25.11. 19:00 9 2 35 310° NW
Fr, 25.11. 13:00 13 3 33 230° SW
Fr, 25.11. 7:00 15 3 28 140° SO
Ortszeit Stärke Spitze Richtung
km/h Bft. km/h Grad Sektor
So, 27.11. 3:30 32 5 43 110° O
So, 27.11. 3:20 32 5 - 110° O
So, 27.11. 3:10 33 5 - 110° O
So, 27.11. 3:00 32 5 40 110° O
So, 27.11. 2:50 32 5 - 110° O
So, 27.11. 2:40 32 5 - 100° O
So, 27.11. 2:30 31 5 37 110° O
So, 27.11. 2:00 26 4 31 110° O
So, 27.11. 1:30 22 4 30 110° O
So, 27.11. 1:00 22 4 29 110° O
So, 27.11. 0:30 22 4 28 110° O
Ortszeit Untergrenze Bedeckung Gattung
total tief tief mittel hoch
So, 27.11. 1:00 9000 m 1/8 0/8 - - -
Sa, 26.11. 19:00 6000 m 5/8 5/8 - - -
Sa, 26.11. 13:00 8100 m 3/8 0/8 - - -
Sa, 26.11. 7:00 <30 m 4/8 0/8 - - -
Sa, 26.11. 1:00 930 m 3/8 3/8 - - -
Fr, 25.11. 19:00 210 m 6/8 2/8 - - -
Fr, 25.11. 13:00 330 m 8/8 7/8 - - -
Fr, 25.11. 7:00 2100 m 7/8 7/8 - - -
Ortszeit Bedeckungsgrad in Achtel und Wolkenuntergrenze
So, 27.11. 3:30 2(9000m) 7(10500m)
So, 27.11. 3:20 2(9000m) 7(10500m)
So, 27.11. 3:10 7
So, 27.11. 3:00 7(10500m)
So, 27.11. 2:50 7(10500m)
So, 27.11. 2:40 7
So, 27.11. 2:30 8(10500m)
So, 27.11. 2:00 7(10500m)
So, 27.11. 1:30 1(9000m)
So, 27.11. 1:00 1(9000m)
So, 27.11. 0:30 4(8100m) 7(9000m)
Ortszeit Stationsdruck (hPa) Tendenz (hPa in 3 Std.)
So, 27.11. 1:00 915 - 0,7
Sa, 26.11. 19:00 916 - 0,2
Sa, 26.11. 13:00 917 - 0,1
Sa, 26.11. 7:00 915 + 0,8
Sa, 26.11. 1:00 913 + 1,1
Fr, 25.11. 19:00 910 + 2,1
Fr, 25.11. 13:00 906 + 0,7
Fr, 25.11. 7:00 904 + 0,5
Ortszeit Stationsdruck (hPa) Tendenz (hPa in 3 Std.)
So, 27.11. 3:30 913 - 2,1
So, 27.11. 3:20 913 keine Meldung
So, 27.11. 3:10 913 keine Meldung
So, 27.11. 3:00 913 - 2,0
So, 27.11. 2:50 913 keine Meldung
So, 27.11. 2:40 913 keine Meldung
So, 27.11. 2:30 914 - 1,7
So, 27.11. 2:00 914 - 1,1
So, 27.11. 1:30 915 - 0,4
So, 27.11. 1:00 915 - 0,7
So, 27.11. 0:30 915 - 0,4
Ortszeit Schneehöhe (cm)
So, 27.11. 1:00 0
Sa, 26.11. 19:00 0
Sa, 26.11. 13:00 0
Sa, 26.11. 7:00 0
Sa, 26.11. 1:00 0
Fr, 25.11. 19:00 0
Fr, 25.11. 13:00 0
Fr, 25.11. 7:00 0
Ortszeit Schneehöhe (cm)
So, 27.11. 3:30 0
So, 27.11. 3:20 0
So, 27.11. 3:10 0
So, 27.11. 3:00 0
So, 27.11. 2:50 0
So, 27.11. 2:40 0
So, 27.11. 2:30 0
So, 27.11. 2:00 0
So, 27.11. 1:30 0
So, 27.11. 1:00 0
So, 27.11. 0:30 0
Link zu dieser Seite / Seite empfehlen

Das Wetter in ...